createdAt,value
2019-04-23T00:02:53.508Z,57.25
2019-04-23T00:05:29.055Z,57.52
2019-04-23T00:07:56.204Z,57.38
2019-04-23T00:10:28.649Z,57.53
2019-04-23T00:13:02.314Z,57.68
2019-04-23T00:16:17.084Z,57.46
2019-04-23T00:18:46.467Z,57.16
2019-04-23T00:21:26.661Z,57.31
2019-04-23T00:24:15.839Z,57.32
2019-04-23T00:29:26.366Z,57.31
2019-04-23T00:31:38.889Z,57.56
2019-04-23T00:34:10.894Z,57.31
2019-04-23T00:36:48.405Z,57.38
2019-04-23T00:39:18.689Z,57.19
2019-04-23T00:41:52.896Z,57.60
2019-04-23T00:44:22.842Z,57.65
2019-04-23T00:46:54.666Z,58.06
2019-04-23T00:49:32.680Z,58.26
2019-04-23T00:52:09.417Z,58.13
2019-04-23T00:54:41.107Z,57.98
2019-04-23T00:57:21.805Z,57.83
2019-04-23T00:59:53.719Z,57.74
2019-04-23T01:02:16.638Z,57.67
2019-04-23T01:04:55.900Z,57.45
2019-04-23T01:07:24.637Z,57.18
2019-04-23T01:10:10.143Z,57.14
2019-04-23T01:17:51.058Z,57.32
2019-04-23T01:20:31.875Z,57.39
2019-04-23T01:22:40.181Z,57.52
2019-04-23T01:25:45.703Z,57.59
2019-04-23T01:28:36.720Z,58.14
2019-04-23T01:31:08.877Z,58.17
2019-04-23T01:33:47.216Z,59.26
2019-04-23T01:36:23.362Z,59.28
2019-04-23T01:38:56.029Z,59.78
2019-04-23T01:41:19.883Z,61.23
2019-04-23T01:43:50.602Z,62.26
2019-04-23T01:46:29.207Z,62.10
2019-04-23T01:48:58.357Z,63.21
2019-04-23T01:51:39.895Z,64.21
2019-04-23T01:54:06.749Z,64.19
2019-04-23T01:56:33.484Z,64.36
2019-04-23T01:59:12.660Z,65.68
2019-04-23T02:01:51.950Z,66.59
2019-04-23T02:04:25.011Z,67.79
2019-04-23T02:06:55.974Z,68.16
2019-04-23T02:09:30.216Z,69.69
2019-04-23T02:11:59.064Z,69.74
2019-04-23T02:14:34.814Z,70.08
2019-04-23T02:17:13.964Z,70.00
2019-04-23T02:22:25.012Z,71.00
2019-04-23T02:24:59.390Z,70.63
2019-04-23T02:27:39.576Z,71.22
2019-04-23T02:30:15.776Z,70.66
2019-04-23T02:32:47.555Z,70.33
2019-04-23T02:35:17.296Z,70.17
2019-04-23T02:37:53.713Z,70.24
2019-04-23T02:40:23.375Z,70.43
2019-04-23T02:43:08.491Z,70.88
2019-04-23T02:45:27.416Z,72.07
2019-04-23T02:50:39.745Z,71.36
2019-04-23T02:53:14.715Z,71.31
2019-04-23T02:55:50.465Z,70.66
2019-04-23T02:58:31.668Z,70.52
2019-04-23T03:01:06.507Z,71.04
2019-04-23T03:08:36.274Z,73.05
2019-04-23T03:16:38.081Z,72.47
2019-04-23T03:19:35.832Z,73.91
2019-04-23T03:22:44.628Z,74.38
2019-04-23T03:25:06.996Z,75.01
2019-04-23T03:30:15.734Z,74.86
2019-04-23T03:33:39.157Z,75.50
2019-04-23T03:35:09.564Z,75.51
2019-04-23T03:37:48.932Z,76.63
2019-04-23T03:40:13.740Z,78.35
2019-04-23T03:43:02.401Z,79.54
2019-04-23T03:45:40.705Z,78.21
2019-04-23T03:48:06.021Z,78.71
2019-04-23T03:53:03.454Z,80.42
2019-04-23T03:55:45.351Z,81.13
2019-04-23T03:58:24.774Z,81.68
2019-04-23T04:01:00.983Z,82.27
2019-04-23T04:06:05.394Z,82.64
2019-04-23T04:08:25.744Z,83.43
2019-04-23T04:16:11.945Z,81.98
2019-04-23T04:18:44.372Z,82.91
2019-04-23T04:21:36.879Z,83.55
2019-04-23T04:24:20.336Z,83.58
2019-04-23T04:29:03.693Z,84.64
2019-04-23T04:39:02.525Z,85.88
2019-04-23T04:41:55.541Z,85.71
2019-04-23T04:44:38.307Z,86.21
2019-04-23T04:49:38.341Z,85.33
2019-04-23T04:57:02.620Z,85.66
2019-04-23T04:59:40.023Z,85.51
2019-04-23T05:02:14.488Z,86.59
2019-04-23T05:04:53.093Z,86.60
2019-04-23T05:07:21.727Z,86.94
2019-04-23T05:12:23.684Z,86.31
2019-04-23T05:17:51.851Z,86.69
2019-04-23T05:23:02.761Z,87.24
2019-04-23T05:25:17.435Z,87.43
2019-04-23T05:28:02.889Z,87.87
2019-04-23T05:30:31.726Z,88.10
2019-04-23T05:33:05.964Z,88.47
2019-04-23T05:38:18.633Z,88.37
2019-04-23T05:40:49.935Z,88.59
2019-04-23T05:43:13.042Z,88.93
2019-04-23T05:45:49.656Z,88.89
2019-04-23T05:48:31.132Z,89.04
2019-04-23T05:51:00.834Z,88.95
2019-04-23T05:53:27.809Z,88.59
2019-04-23T05:56:01.785Z,88.06
2019-04-23T05:58:36.900Z,87.86
2019-04-23T06:01:42.649Z,87.58
2019-04-23T06:03:57.702Z,88.59
2019-04-23T06:06:37.795Z,88.63
2019-04-23T06:08:58.669Z,89.30
2019-04-23T06:11:45.573Z,89.40
2019-04-23T06:16:44.602Z,89.29
2019-04-23T06:19:12.882Z,89.60
2019-04-23T06:24:26.111Z,89.59
2019-04-23T06:27:01.727Z,89.06
2019-04-23T06:29:32.179Z,89.17
2019-04-23T06:31:54.044Z,89.16
2019-04-23T06:34:36.409Z,89.19
2019-04-23T06:37:02.183Z,89.27
2019-04-23T06:42:23.448Z,88.52
2019-04-23T06:44:53.518Z,88.48
2019-04-23T06:47:21.905Z,88.81
2019-04-23T06:49:56.002Z,88.83
2019-04-23T06:52:41.857Z,88.83
2019-04-23T06:57:37.104Z,88.30
2019-04-23T07:00:29.563Z,88.72
2019-04-23T07:02:44.433Z,88.59
2019-04-23T07:05:15.808Z,88.22
2019-04-23T07:07:54.823Z,87.81
2019-04-23T07:10:24.955Z,87.31
2019-04-23T07:12:59.370Z,86.10
2019-04-23T07:15:42.394Z,86.29
2019-04-23T07:18:03.841Z,85.96
2019-04-23T07:20:36.093Z,85.51
2019-04-23T07:23:14.145Z,85.53
2019-04-23T07:25:40.386Z,85.10
2019-04-23T07:28:23.493Z,85.52
2019-04-23T07:30:55.908Z,85.63
2019-04-23T07:33:29.863Z,85.29
2019-04-23T07:36:00.274Z,85.47
2019-04-23T07:42:09.456Z,85.36
2019-04-23T07:44:49.629Z,85.07
2019-04-23T07:47:32.092Z,85.68
2019-04-23T07:50:09.909Z,85.97
2019-04-23T07:52:47.943Z,85.10
2019-04-23T07:55:16.310Z,85.02
2019-04-23T07:57:40.093Z,84.42
2019-04-23T08:00:07.628Z,84.74
2019-04-23T08:02:44.091Z,84.59
2019-04-23T08:07:54.138Z,83.33
2019-04-23T08:10:29.783Z,82.87
2019-04-23T08:13:00.930Z,83.01
2019-04-23T08:18:06.950Z,82.20
2019-04-23T08:20:47.435Z,81.19
2019-04-23T08:23:17.822Z,80.02
2019-04-23T08:26:22.555Z,79.23
2019-04-23T08:28:58.475Z,78.53
2019-04-23T08:31:27.057Z,78.30
2019-04-23T08:33:58.865Z,77.56
2019-04-23T08:36:27.894Z,75.73
2019-04-23T08:38:56.928Z,76.52
2019-04-23T08:41:46.233Z,75.52
2019-04-23T08:44:15.619Z,75.32
2019-04-23T08:46:56.762Z,75.55
2019-04-23T08:49:29.342Z,74.41
2019-04-23T08:52:00.605Z,73.82
2019-04-23T08:54:42.893Z,73.79
2019-04-23T08:59:47.361Z,73.28
2019-04-23T09:04:49.602Z,73.12
2019-04-23T09:07:29.347Z,73.25
2019-04-23T09:09:56.862Z,73.27
2019-04-23T09:12:28.597Z,73.25
2019-04-23T09:15:01.854Z,73.92
2019-04-23T09:17:34.609Z,74.99
2019-04-23T09:20:18.533Z,75.50
2019-04-23T09:22:36.472Z,75.82
2019-04-23T09:25:11.668Z,76.11
2019-04-23T09:27:42.366Z,75.47
2019-04-23T09:30:13.309Z,76.45
2019-04-23T09:32:51.593Z,75.83
2019-04-23T09:35:48.451Z,76.21
2019-04-23T09:38:38.241Z,75.37
2019-04-23T09:41:29.952Z,76.58
2019-04-23T09:49:39.534Z,75.99
2019-04-23T09:52:14.681Z,75.45
2019-04-23T09:55:04.750Z,74.99
2019-04-23T09:57:20.447Z,75.13
2019-04-23T09:59:52.909Z,74.47
2019-04-23T10:02:14.694Z,74.82
2019-04-23T10:04:50.602Z,74.24
2019-04-23T10:07:21.144Z,74.30
2019-04-23T10:09:40.517Z,74.75
2019-04-23T10:12:14.642Z,74.75
2019-04-23T10:14:59.348Z,74.71
2019-04-23T10:17:20.183Z,74.03
2019-04-23T10:19:53.043Z,73.99
2019-04-23T10:22:25.143Z,72.78
2019-04-23T10:24:57.184Z,73.08
2019-04-23T10:27:29.446Z,72.94
2019-04-23T10:30:01.734Z,71.98
2019-04-23T10:32:35.836Z,69.65
2019-04-23T10:35:21.038Z,69.10
2019-04-23T10:37:52.220Z,67.99
2019-04-23T10:40:23.917Z,67.32
2019-04-23T10:42:52.288Z,67.19
2019-04-23T10:45:53.163Z,67.13
2019-04-23T10:49:00.718Z,66.64
2019-04-23T10:51:33.885Z,65.95
2019-04-23T10:54:23.950Z,65.30
2019-04-23T10:59:35.449Z,66.54
2019-04-23T11:02:24.086Z,65.68
2019-04-23T11:12:44.872Z,66.48
2019-04-23T11:15:34.816Z,66.62
2019-04-23T11:17:54.890Z,66.55
2019-04-23T11:20:35.416Z,66.52
2019-04-23T11:28:16.225Z,67.51
2019-04-23T11:30:45.061Z,67.13
2019-04-23T11:33:31.635Z,67.81
2019-04-23T11:36:33.393Z,68.25
2019-04-23T11:38:51.209Z,67.85
2019-04-23T11:41:09.656Z,68.54
2019-04-23T11:43:38.050Z,69.42
2019-04-23T11:49:10.210Z,68.50
2019-04-23T11:53:58.060Z,68.21
2019-04-23T11:59:29.713Z,66.92
2019-04-23T12:04:48.017Z,65.72
2019-04-23T12:07:34.763Z,64.68
2019-04-23T12:10:17.211Z,64.39
2019-04-23T12:12:39.670Z,64.98
2019-04-23T12:15:18.308Z,65.36
2019-04-23T12:17:53.876Z,64.70
2019-04-23T12:20:28.903Z,65.04
2019-04-23T12:23:04.290Z,65.15
2019-04-23T12:25:32.452Z,65.50
2019-04-23T12:28:02.235Z,65.16
2019-04-23T12:30:40.714Z,65.21
2019-04-23T12:33:11.622Z,64.67
2019-04-23T12:35:39.014Z,64.91
2019-04-23T12:41:05.035Z,65.04
2019-04-23T12:43:28.613Z,64.62
2019-04-23T12:45:50.446Z,65.29
2019-04-23T12:48:39.809Z,65.73
2019-04-23T12:50:58.716Z,66.02
2019-04-23T12:53:34.738Z,66.95
2019-04-23T12:56:12.890Z,66.21
2019-04-23T12:58:58.110Z,66.27
2019-04-23T13:01:22.852Z,65.27
2019-04-23T13:03:45.565Z,65.24
2019-04-23T13:06:22.273Z,65.57
2019-04-23T13:09:01.446Z,67.20
2019-04-23T13:11:36.847Z,68.04
2019-04-23T13:14:08.862Z,69.06
2019-04-23T13:16:48.804Z,68.70
2019-04-23T13:19:30.207Z,68.62
2019-04-23T13:24:48.882Z,66.82
2019-04-23T13:27:29.367Z,67.01
2019-04-23T13:30:01.594Z,67.27
2019-04-23T13:32:36.027Z,67.28
2019-04-23T13:37:49.651Z,66.25
2019-04-23T13:40:21.354Z,66.11
2019-04-23T13:43:06.949Z,65.73
2019-04-23T13:45:53.596Z,65.94
2019-04-23T13:48:06.271Z,66.13
2019-04-23T13:50:38.847Z,66.02
2019-04-23T13:55:26.670Z,66.10
2019-04-23T14:03:28.636Z,66.59
2019-04-23T14:16:39.126Z,66.23
2019-04-23T14:19:04.659Z,66.15
2019-04-23T14:21:37.605Z,65.92
2019-04-23T14:27:09.635Z,65.71
2019-04-23T14:29:24.825Z,65.13
2019-04-23T14:32:03.067Z,65.07
2019-04-23T14:34:31.286Z,65.09
2019-04-23T14:39:43.726Z,65.51
2019-04-23T14:42:21.417Z,65.54
2019-04-23T14:44:52.481Z,65.42
2019-04-23T14:47:29.570Z,65.28
2019-04-23T14:50:28.112Z,65.40
2019-04-23T14:55:43.184Z,65.49
2019-04-23T14:58:07.923Z,65.72
2019-04-23T15:00:18.215Z,65.67
2019-04-23T15:02:56.581Z,65.17
2019-04-23T15:05:27.527Z,65.47
2019-04-23T15:07:58.409Z,65.03
2019-04-23T15:10:32.392Z,64.37
2019-04-23T15:12:59.662Z,64.93
2019-04-23T15:15:34.400Z,64.79
2019-04-23T15:18:18.679Z,65.37
2019-04-23T15:21:08.655Z,65.05
2019-04-23T15:23:41.214Z,65.12
2019-04-23T15:26:57.084Z,64.51
2019-04-23T15:28:09.111Z,64.80
2019-04-23T15:31:10.058Z,64.82
2019-04-23T15:33:48.889Z,65.28
2019-04-23T15:41:27.475Z,65.83
2019-04-23T15:43:58.965Z,65.64
2019-04-23T15:49:07.298Z,65.94
2019-04-23T15:51:35.566Z,65.83
2019-04-23T15:56:40.937Z,66.15
2019-04-23T15:59:21.811Z,66.59
2019-04-23T16:01:37.100Z,66.58
2019-04-23T16:03:51.708Z,67.17
2019-04-23T16:06:26.434Z,67.57
2019-04-23T16:09:17.881Z,67.82
2019-04-23T16:11:51.820Z,67.28
2019-04-23T16:14:40.689Z,67.69
2019-04-23T16:17:09.959Z,67.70
2019-04-23T16:19:54.153Z,67.59
2019-04-23T16:24:55.510Z,67.22
2019-04-23T16:27:36.566Z,67.09
2019-04-23T16:30:12.836Z,67.60
2019-04-23T16:33:06.938Z,67.29
2019-04-23T16:35:43.727Z,67.08
2019-04-23T16:40:44.489Z,67.37
2019-04-23T16:43:14.555Z,67.65
2019-04-23T16:45:54.780Z,67.78
2019-04-23T16:53:24.081Z,67.20
2019-04-23T16:58:55.134Z,67.14
2019-04-23T17:01:08.749Z,67.31
2019-04-23T17:11:21.394Z,68.20
2019-04-23T17:16:28.613Z,68.50
2019-04-23T17:19:01.850Z,68.63
2019-04-23T17:21:36.677Z,68.99
2019-04-23T17:24:15.157Z,69.30
2019-04-23T17:26:37.356Z,69.18
2019-04-23T17:29:20.336Z,69.36
2019-04-23T17:32:00.562Z,69.64
2019-04-23T17:34:30.687Z,69.83
2019-04-23T17:37:05.289Z,70.00
2019-04-23T17:42:55.399Z,70.00
2019-04-23T17:48:24.067Z,70.43
2019-04-23T17:56:18.436Z,70.96
2019-04-23T17:58:30.104Z,70.96
2019-04-23T18:01:24.498Z,70.88
2019-04-23T18:03:56.650Z,71.09
2019-04-23T18:09:03.471Z,71.65
2019-04-23T18:11:44.601Z,71.53
2019-04-23T18:14:02.688Z,71.98
2019-04-23T18:16:41.699Z,71.90
2019-04-23T18:21:50.570Z,72.44
2019-04-23T18:24:36.556Z,72.09
2019-04-23T18:30:08.038Z,73.03
2019-04-23T18:38:14.616Z,74.02
2019-04-23T18:41:02.500Z,73.76
2019-04-23T18:43:26.908Z,74.20
2019-04-23T18:53:46.838Z,74.62
2019-04-23T18:58:54.540Z,74.79
2019-04-23T19:06:41.343Z,74.41
2019-04-23T19:10:13.668Z,74.49
2019-04-23T19:17:50.475Z,74.19
2019-04-23T19:20:53.479Z,74.17
2019-04-23T19:23:09.541Z,73.85
2019-04-23T19:25:31.779Z,74.26
2019-04-23T19:28:23.923Z,74.00
2019-04-23T19:31:00.478Z,73.79
2019-04-23T19:33:35.303Z,73.96
2019-04-23T19:38:36.482Z,73.23
2019-04-23T19:41:02.177Z,73.44
2019-04-23T19:43:41.540Z,73.77
2019-04-23T19:46:42.002Z,73.87
2019-04-23T19:49:07.311Z,73.77
2019-04-23T19:54:01.786Z,73.95
2019-04-23T19:56:30.920Z,73.86
2019-04-23T19:58:56.716Z,74.24
2019-04-23T20:01:31.225Z,74.57
2019-04-23T20:04:04.181Z,74.27
2019-04-23T20:09:28.463Z,74.28
2019-04-23T20:14:21.344Z,74.02
2019-04-23T20:17:20.835Z,74.16
2019-04-23T20:19:33.003Z,73.63
2019-04-23T20:22:00.682Z,73.85
2019-04-23T20:24:41.833Z,73.93
2019-04-23T20:38:08.896Z,74.50
2019-04-23T20:40:23.691Z,74.62
2019-04-23T20:45:20.509Z,74.23
2019-04-23T20:47:58.085Z,74.67
2019-04-23T20:50:32.520Z,74.30
2019-04-23T20:53:01.357Z,73.98
2019-04-23T20:55:52.977Z,73.52
2019-04-23T20:58:21.621Z,73.61
2019-04-23T21:01:18.822Z,73.29
2019-04-23T21:09:13.318Z,72.87
2019-04-23T21:11:27.976Z,73.13
2019-04-23T21:16:37.523Z,73.00
2019-04-23T21:19:07.781Z,73.61
2019-04-23T21:22:06.044Z,73.03
2019-04-23T21:24:40.120Z,73.07
2019-04-23T21:27:40.916Z,73.48
2019-04-23T21:32:41.083Z,73.46
2019-04-23T21:37:53.780Z,73.20
2019-04-23T21:43:51.797Z,73.25
2019-04-23T21:46:28.196Z,73.25
2019-04-23T21:48:53.069Z,73.73
2019-04-23T21:51:22.843Z,73.27
2019-04-23T21:53:46.427Z,73.05
2019-04-23T21:58:57.910Z,72.81
2019-04-23T22:01:34.605Z,73.38
2019-04-23T22:06:35.798Z,73.13
2019-04-23T22:09:22.611Z,72.97
2019-04-23T22:24:19.480Z,73.67
2019-04-23T22:26:57.579Z,73.59
2019-04-23T22:29:33.449Z,73.99
2019-04-23T22:31:53.832Z,74.20
2019-04-23T22:39:45.918Z,74.81
2019-04-23T22:42:36.676Z,74.70
2019-04-23T22:45:10.676Z,74.76
2019-04-23T22:47:28.081Z,74.55
2019-04-23T22:50:05.905Z,74.90
2019-04-23T22:55:07.312Z,74.86
2019-04-23T22:58:04.410Z,75.26
2019-04-23T23:08:34.655Z,75.64
2019-04-23T23:11:03.458Z,75.80
2019-04-23T23:16:07.172Z,75.98
2019-04-23T23:18:44.009Z,75.62
2019-04-23T23:21:19.906Z,76.51
2019-04-23T23:23:52.975Z,75.75
2019-04-23T23:26:21.983Z,75.85
2019-04-23T23:28:55.017Z,75.78
2019-04-23T23:31:31.363Z,77.23
2019-04-23T23:34:04.392Z,76.88
2019-04-23T23:36:38.619Z,76.30
2019-04-23T23:39:16.020Z,76.59
2019-04-23T23:41:52.095Z,77.62
2019-04-23T23:46:56.524Z,76.42
2019-04-23T23:52:03.507Z,76.74
2019-04-23T23:54:17.667Z,76.49
2019-04-23T23:57:09.162Z,76.70
